sensor_id;sensor_type;location;lat;lon;timestamp;pressure;altitude;pressure_sealevel;temperature;humidity
31483;BME280;18103;52.246;8.052;2023-04-01T00:01:12;98168.03;;;9.67;91.46
31483;BME280;18103;52.246;8.052;2023-04-01T00:03:41;98165.56;;;9.74;91.12
31483;BME280;18103;52.246;8.052;2023-04-01T00:06:07;98158.84;;;9.63;91.58
31483;BME280;18103;52.246;8.052;2023-04-01T00:08:33;98162.09;;;9.65;91.42
31483;BME280;18103;52.246;8.052;2023-04-01T00:10:58;98166.69;;;9.80;90.84
31483;BME280;18103;52.246;8.052;2023-04-01T00:13:26;98166.38;;;9.74;91.17
31483;BME280;18103;52.246;8.052;2023-04-01T00:15:53;98156.34;;;9.70;91.12
31483;BME280;18103;52.246;8.052;2023-04-01T00:18:18;98153.22;;;9.66;91.42
31483;BME280;18103;52.246;8.052;2023-04-01T00:20:48;98157.97;;;9.71;91.40
31483;BME280;18103;52.246;8.052;2023-04-01T00:23:15;98155.22;;;9.64;91.16
31483;BME280;18103;52.246;8.052;2023-04-01T00:25:41;98152.25;;;9.67;91.24
31483;BME280;18103;52.246;8.052;2023-04-01T00:28:07;98146.16;;;9.67;91.24
31483;BME280;18103;52.246;8.052;2023-04-01T00:30:33;98143.84;;;9.64;91.32
31483;BME280;18103;52.246;8.052;2023-04-01T00:33:01;98153.06;;;9.59;91.89
31483;BME280;18103;52.246;8.052;2023-04-01T00:35:29;98152.91;;;9.61;91.83
31483;BME280;18103;52.246;8.052;2023-04-01T00:37:55;98138.59;;;9.55;91.80
31483;BME280;18103;52.246;8.052;2023-04-01T00:40:31;98145.16;;;9.68;91.75
31483;BME280;18103;52.246;8.052;2023-04-01T00:42:59;98147.16;;;9.66;91.57
31483;BME280;18103;52.246;8.052;2023-04-01T00:45:40;98136.59;;;9.66;91.37
31483;BME280;18103;52.246;8.052;2023-04-01T00:48:13;98146.84;;;9.52;92.00
31483;BME280;18103;52.246;8.052;2023-04-01T00:50:45;98145.50;;;9.56;92.20
31483;BME280;18103;52.246;8.052;2023-04-01T00:53:13;98145.03;;;9.53;92.12
31483;BME280;18103;52.246;8.052;2023-04-01T00:55:46;98149.59;;;9.67;91.90
31483;BME280;18103;52.246;8.052;2023-04-01T00:58:17;98137.94;;;9.62;92.03
31483;BME280;18103;52.246;8.052;2023-04-01T01:00:46;98145.00;;;9.61;91.65
31483;BME280;18103;52.246;8.052;2023-04-01T01:03:13;98141.09;;;9.57;92.14
31483;BME280;18103;52.246;8.052;2023-04-01T01:11:24;98144.69;;;9.56;92.11
31483;BME280;18103;52.246;8.052;2023-04-01T01:14:17;98145.03;;;9.53;92.11
31483;BME280;18103;52.246;8.052;2023-04-01T01:16:54;98139.13;;;9.42;92.51
31483;BME280;18103;52.246;8.052;2023-04-01T01:25:30;98147.69;;;9.53;92.00
31483;BME280;18103;52.246;8.052;2023-04-01T01:28:36;98137.47;;;9.50;91.84
31483;BME280;18103;52.246;8.052;2023-04-01T01:34:00;98145.53;;;9.48;91.97
31483;BME280;18103;52.246;8.052;2023-04-01T01:36:31;98144.53;;;9.57;91.42
31483;BME280;18103;52.246;8.052;2023-04-01T01:39:01;98130.88;;;9.46;92.07
31483;BME280;18103;52.246;8.052;2023-04-01T01:41:30;98142.25;;;9.46;92.16
31483;BME280;18103;52.246;8.052;2023-04-01T01:43:58;98135.00;;;9.48;91.36
31483;BME280;18103;52.246;8.052;2023-04-01T01:46:28;98136.00;;;9.47;92.06
31483;BME280;18103;52.246;8.052;2023-04-01T01:48:56;98135.50;;;9.44;92.13
31483;BME280;18103;52.246;8.052;2023-04-01T01:51:23;98132.69;;;9.45;92.13
31483;BME280;18103;52.246;8.052;2023-04-01T01:53:51;98131.72;;;9.54;91.77
31483;BME280;18103;52.246;8.052;2023-04-01T01:56:18;98129.72;;;9.56;91.55
31483;BME280;18103;52.246;8.052;2023-04-01T01:58:55;98132.25;;;9.41;91.97
31483;BME280;18103;52.246;8.052;2023-04-01T02:01:24;98131.41;;;9.41;92.10
31483;BME280;18103;52.246;8.052;2023-04-01T02:03:52;98133.84;;;9.42;92.44
31483;BME280;18103;52.246;8.052;2023-04-01T02:06:26;98134.19;;;9.48;92.28
31483;BME280;18103;52.246;8.052;2023-04-01T02:09:03;98144.38;;;9.42;92.27
31483;BME280;18103;52.246;8.052;2023-04-01T02:11:40;98130.94;;;9.37;92.17
31483;BME280;18103;52.246;8.052;2023-04-01T02:14:18;98134.88;;;9.41;92.02
31483;BME280;18103;52.246;8.052;2023-04-01T02:16:55;98128.59;;;9.34;92.73
31483;BME280;18103;52.246;8.052;2023-04-01T02:19:29;98133.84;;;9.51;91.40
31483;BME280;18103;52.246;8.052;2023-04-01T02:22:01;98135.88;;;9.32;92.58
31483;BME280;18103;52.246;8.052;2023-04-01T02:24:31;98128.59;;;9.34;92.48
31483;BME280;18103;52.246;8.052;2023-04-01T02:27:00;98127.13;;;9.40;91.81
31483;BME280;18103;52.246;8.052;2023-04-01T02:29:26;98128.44;;;9.36;92.21
31483;BME280;18103;52.246;8.052;2023-04-01T02:31:53;98134.19;;;9.39;92.43
31483;BME280;18103;52.246;8.052;2023-04-01T02:34:21;98135.00;;;9.40;92.02
31483;BME280;18103;52.246;8.052;2023-04-01T02:36:50;98131.41;;;9.41;92.19
31483;BME280;18103;52.246;8.052;2023-04-01T02:39:16;98136.19;;;9.37;92.16
31483;BME280;18103;52.246;8.052;2023-04-01T02:41:43;98147.03;;;9.42;92.13
31483;BME280;18103;52.246;8.052;2023-04-01T02:44:11;98139.47;;;9.39;91.79
31483;BME280;18103;52.246;8.052;2023-04-01T02:46:37;98141.13;;;9.40;92.24
31483;BME280;18103;52.246;8.052;2023-04-01T02:49:05;98141.75;;;9.42;92.12
31483;BME280;18103;52.246;8.052;2023-04-01T02:51:31;98139.28;;;9.41;92.46
31483;BME280;18103;52.246;8.052;2023-04-01T02:53:57;98135.00;;;9.40;92.31
31483;BME280;18103;52.246;8.052;2023-04-01T02:56:25;98139.66;;;9.30;92.90
31483;BME280;18103;52.246;8.052;2023-04-01T02:58:51;98132.53;;;9.47;91.93
31483;BME280;18103;52.246;8.052;2023-04-01T03:01:16;98138.78;;;9.46;92.10
31483;BME280;18103;52.246;8.052;2023-04-01T03:03:42;98139.81;;;9.36;92.00
31483;BME280;18103;52.246;8.052;2023-04-01T03:06:09;98133.56;;;9.37;92.33
31483;BME280;18103;52.246;8.052;2023-04-01T03:08:38;98137.16;;;9.45;92.17
31483;BME280;18103;52.246;8.052;2023-04-01T03:11:03;98146.03;;;9.52;91.79
31483;BME280;18103;52.246;8.052;2023-04-01T03:13:29;98142.25;;;9.46;92.08
31483;BME280;18103;52.246;8.052;2023-04-01T03:15:55;98138.97;;;9.36;91.97
31483;BME280;18103;52.246;8.052;2023-04-01T03:18:20;98145.88;;;9.37;92.09
31483;BME280;18103;52.246;8.052;2023-04-01T03:20:46;98150.16;;;9.38;91.99
31483;BME280;18103;52.246;8.052;2023-04-01T03:23:12;98138.66;;;9.39;92.11
31483;BME280;18103;52.246;8.052;2023-04-01T03:25:37;98134.19;;;9.39;92.00
31483;BME280;18103;52.246;8.052;2023-04-01T03:28:08;98142.44;;;9.45;91.76
31483;BME280;18103;52.246;8.052;2023-04-01T03:30:33;98144.91;;;9.38;91.89
31483;BME280;18103;52.246;8.052;2023-04-01T03:32:59;98150.81;;;9.40;91.83
31483;BME280;18103;52.246;8.052;2023-04-01T03:35:28;98143.44;;;9.27;92.39
31483;BME280;18103;52.246;8.052;2023-04-01T03:37:54;98145.25;;;9.35;92.72
31483;BME280;18103;52.246;8.052;2023-04-01T03:40:24;98142.63;;;9.35;92.41
31483;BME280;18103;52.246;8.052;2023-04-01T03:42:52;98143.94;;;9.31;92.16
31483;BME280;18103;52.246;8.052;2023-04-01T03:45:21;98147.88;;;9.27;92.74
31483;BME280;18103;52.246;8.052;2023-04-01T03:47:46;98140.63;;;9.29;92.24
31483;BME280;18103;52.246;8.052;2023-04-01T03:50:11;98133.38;;;9.39;91.99
31483;BME280;18103;52.246;8.052;2023-04-01T03:52:42;98132.91;;;9.27;92.78
31483;BME280;18103;52.246;8.052;2023-04-01T03:55:07;98134.38;;;9.30;92.88
31483;BME280;18103;52.246;8.052;2023-04-01T03:57:37;98138.84;;;9.29;92.79
31483;BME280;18103;52.246;8.052;2023-04-01T04:00:05;98143.78;;;9.24;92.98
31483;BME280;18103;52.246;8.052;2023-04-01T04:02:30;98140.50;;;9.14;93.57
31483;BME280;18103;52.246;8.052;2023-04-01T04:04:56;98143.44;;;9.11;93.21
31483;BME280;18103;52.246;8.052;2023-04-01T04:07:23;98146.41;;;9.24;93.33
31483;BME280;18103;52.246;8.052;2023-04-01T04:09:51;98155.97;;;9.08;93.72
31483;BME280;18103;52.246;8.052;2023-04-01T04:12:18;98138.34;;;9.17;93.04
31483;BME280;18103;52.246;8.052;2023-04-01T04:14:44;98144.41;;;9.26;92.96
31483;BME280;18103;52.246;8.052;2023-04-01T04:17:12;98154.31;;;9.16;93.62
31483;BME280;18103;52.246;8.052;2023-04-01T04:19:41;98138.69;;;9.22;93.22
31483;BME280;18103;52.246;8.052;2023-04-01T04:22:07;98152.66;;;9.23;93.18
31483;BME280;18103;52.246;8.052;2023-04-01T04:24:35;98146.06;;;9.19;93.21
31483;BME280;18103;52.246;8.052;2023-04-01T04:27:01;98149.53;;;9.28;93.01
31483;BME280;18103;52.246;8.052;2023-04-01T04:29:27;98151.34;;;9.11;93.57
31483;BME280;18103;52.246;8.052;2023-04-01T04:31:54;98153.97;;;9.19;93.30
31483;BME280;18103;52.246;8.052;2023-04-01T04:34:20;98157.44;;;9.19;93.47
31483;BME280;18103;52.246;8.052;2023-04-01T04:36:49;98153.31;;;9.17;93.31
31483;BME280;18103;52.246;8.052;2023-04-01T04:39:15;98163.19;;;9.15;93.40
31483;BME280;18103;52.246;8.052;2023-04-01T04:41:41;98161.22;;;9.17;93.28
31483;BME280;18103;52.246;8.052;2023-04-01T04:44:07;98161.69;;;9.20;93.20
31483;BME280;18103;52.246;8.052;2023-04-01T04:46:34;98166.81;;;9.22;93.52
31483;BME280;18103;52.246;8.052;2023-04-01T04:49:03;98172.25;;;9.12;93.58
31483;BME280;18103;52.246;8.052;2023-04-01T04:51:28;98172.09;;;9.22;93.30
31483;BME280;18103;52.246;8.052;2023-04-01T04:53:54;98166.31;;;9.27;92.62
31483;BME280;18103;52.246;8.052;2023-04-01T04:56:21;98171.41;;;9.20;93.36
31483;BME280;18103;52.246;8.052;2023-04-01T04:58:47;98174.56;;;9.15;93.42
31483;BME280;18103;52.246;8.052;2023-04-01T05:01:16;98173.53;;;9.16;93.35
31483;BME280;18103;52.246;8.052;2023-04-01T05:03:42;98175.69;;;9.21;93.21
31483;BME280;18103;52.246;8.052;2023-04-01T05:06:08;98181.94;;;9.28;92.63
31483;BME280;18103;52.246;8.052;2023-04-01T05:08:35;98174.03;;;9.20;93.04
31483;BME280;18103;52.246;8.052;2023-04-01T05:11:02;98176.66;;;9.28;92.60
31483;BME280;18103;52.246;8.052;2023-04-01T05:13:32;98183.91;;;9.34;92.13
31483;BME280;18103;52.246;8.052;2023-04-01T05:15:57;98189.03;;;9.19;93.16
31483;BME280;18103;52.246;8.052;2023-04-01T05:18:25;98181.59;;;9.23;92.74
31483;BME280;18103;52.246;8.052;2023-04-01T05:20:52;98183.59;;;9.29;92.85
31483;BME280;18103;52.246;8.052;2023-04-01T05:23:18;98190.34;;;9.32;92.62
31483;BME280;18103;52.246;8.052;2023-04-01T05:25:46;98200.38;;;9.28;93.10
31483;BME280;18103;52.246;8.052;2023-04-01T05:28:12;98183.59;;;9.13;93.55
31483;BME280;18103;52.246;8.052;2023-04-01T05:30:43;98188.84;;;9.37;92.83
31483;BME280;18103;52.246;8.052;2023-04-01T05:33:09;98191.78;;;9.26;93.24
31483;BME280;18103;52.246;8.052;2023-04-01T05:35:36;98192.47;;;9.20;93.49
31483;BME280;18103;52.246;8.052;2023-04-01T05:38:02;98199.69;;;9.26;93.52
31483;BME280;18103;52.246;8.052;2023-04-01T05:40:28;98196.09;;;9.19;93.36
31483;BME280;18103;52.246;8.052;2023-04-01T05:42:54;98203.00;;;9.28;92.80
31483;BME280;18103;52.246;8.052;2023-04-01T05:45:22;98201.50;;;9.25;92.92
31483;BME280;18103;52.246;8.052;2023-04-01T05:47:47;98200.53;;;9.27;92.88
31483;BME280;18103;52.246;8.052;2023-04-01T05:50:15;98199.50;;;9.44;92.13
31483;BME280;18103;52.246;8.052;2023-04-01T05:52:43;98211.22;;;9.25;93.10
31483;BME280;18103;52.246;8.052;2023-04-01T05:55:09;98205.97;;;9.25;92.77
31483;BME280;18103;52.246;8.052;2023-04-01T05:57:37;98207.75;;;9.24;93.01
31483;BME280;18103;52.246;8.052;2023-04-01T06:00:08;98214.03;;;9.32;92.77
31483;BME280;18103;52.246;8.052;2023-04-01T06:02:35;98215.19;;;9.21;93.35
31483;BME280;18103;52.246;8.052;2023-04-01T06:05:24;98217.47;;;9.32;92.83
31483;BME280;18103;52.246;8.052;2023-04-01T06:07:58;98216.84;;;9.22;93.24
31483;BME280;18103;52.246;8.052;2023-04-01T06:10:51;98226.53;;;9.38;92.78
31483;BME280;18103;52.246;8.052;2023-04-01T06:14:01;98218.13;;;9.26;92.98
31483;BME280;18103;52.246;8.052;2023-04-01T06:36:19;98243.00;;;9.32;92.58
31483;BME280;18103;52.246;8.052;2023-04-01T06:39:13;98245.28;;;9.27;92.75
31483;BME280;18103;52.246;8.052;2023-04-01T06:42:08;98248.41;;;9.30;93.07
31483;BME280;18103;52.246;8.052;2023-04-01T06:52:56;98255.31;;;9.31;93.57
31483;BME280;18103;52.246;8.052;2023-04-01T06:55:36;98260.25;;;9.34;93.09
31483;BME280;18103;52.246;8.052;2023-04-01T06:58:13;98261.25;;;9.33;93.00
31483;BME280;18103;52.246;8.052;2023-04-01T07:00:44;98262.22;;;9.32;93.11
31483;BME280;18103;52.246;8.052;2023-04-01T07:05:48;98269.16;;;9.41;93.23
31483;BME280;18103;52.246;8.052;2023-04-01T07:08:23;98269.81;;;9.44;92.99
31483;BME280;18103;52.246;8.052;2023-04-01T07:10:54;98266.19;;;9.36;92.71
31483;BME280;18103;52.246;8.052;2023-04-01T07:13:31;98276.38;;;9.48;92.50
31483;BME280;18103;52.246;8.052;2023-04-01T07:21:27;98283.94;;;9.42;92.88
31483;BME280;18103;52.246;8.052;2023-04-01T07:23:57;98290.88;;;9.52;92.74
31483;BME280;18103;52.246;8.052;2023-04-01T07:26:25;98289.22;;;9.59;92.69
31483;BME280;18103;52.246;8.052;2023-04-01T07:28:52;98298.09;;;9.50;92.77
31483;BME280;18103;52.246;8.052;2023-04-01T07:45:57;98312.41;;;9.64;92.64
31483;BME280;18103;52.246;8.052;2023-04-01T07:48:29;98306.66;;;9.52;92.75
31483;BME280;18103;52.246;8.052;2023-04-01T07:54:01;98312.94;;;9.75;91.73
31483;BME280;18103;52.246;8.052;2023-04-01T08:02:15;98332.50;;;9.73;92.80
31483;BME280;18103;52.246;8.052;2023-04-01T08:10:39;98338.25;;;9.85;92.81
31483;BME280;18103;52.246;8.052;2023-04-01T08:21:08;98353.09;;;9.86;92.76
31483;BME280;18103;52.246;8.052;2023-04-01T08:23:46;98356.56;;;9.86;93.18
31483;BME280;18103;52.246;8.052;2023-04-01T08:26:34;98363.28;;;9.97;92.46
31483;BME280;18103;52.246;8.052;2023-04-01T08:29:20;98364.31;;;9.88;92.61
31483;BME280;18103;52.246;8.052;2023-04-01T08:31:55;98372.22;;;9.80;92.74
31483;BME280;18103;52.246;8.052;2023-04-01T08:34:28;98370.72;;;9.77;92.84
31483;BME280;18103;52.246;8.052;2023-04-01T08:37:05;98377.13;;;9.83;92.79
31483;BME280;18103;52.246;8.052;2023-04-01T08:39:42;98366.44;;;9.92;92.46
31483;BME280;18103;52.246;8.052;2023-04-01T08:48:04;98378.75;;;10.08;91.98
31483;BME280;18103;52.246;8.052;2023-04-01T08:56:15;98387.66;;;10.24;91.58
31483;BME280;18103;52.246;8.052;2023-04-01T09:01:34;98386.19;;;10.13;92.75
31483;BME280;18103;52.246;8.052;2023-04-01T09:04:14;98397.53;;;10.22;92.61
31483;BME280;18103;52.246;8.052;2023-04-01T09:12:46;98403.13;;;10.43;92.22
31483;BME280;18103;52.246;8.052;2023-04-01T09:16:21;98400.50;;;10.43;92.17
31483;BME280;18103;52.246;8.052;2023-04-01T09:18:45;98402.66;;;10.48;91.87
31483;BME280;18103;52.246;8.052;2023-04-01T09:21:28;98400.66;;;10.50;92.23
31483;BME280;18103;52.246;8.052;2023-04-01T09:37:21;98420.84;;;10.83;90.95
31483;BME280;18103;52.246;8.052;2023-04-01T09:40:03;98423.78;;;10.96;90.13
31483;BME280;18103;52.246;8.052;2023-04-01T09:48:05;98436.59;;;10.59;91.99
31483;BME280;18103;52.246;8.052;2023-04-01T09:51:01;98433.75;;;10.77;90.67
31483;BME280;18103;52.246;8.052;2023-04-01T10:05:12;98438.66;;;11.28;89.71
31483;BME280;18103;52.246;8.052;2023-04-01T10:19:29;98452.97;;;11.42;89.22
31483;BME280;18103;52.246;8.052;2023-04-01T10:25:10;98453.09;;;11.49;88.52
31483;BME280;18103;52.246;8.052;2023-04-01T10:52:42;98479.47;;;11.57;87.52
31483;BME280;18103;52.246;8.052;2023-04-01T11:04:32;98474.66;;;11.61;88.88
31483;BME280;18103;52.246;8.052;2023-04-01T11:21:54;98491.09;;;11.40;87.98
31483;BME280;18103;52.246;8.052;2023-04-01T11:37:55;98506.00;;;12.04;87.03
31483;BME280;18103;52.246;8.052;2023-04-01T11:40:45;98509.56;;;12.11;87.03
31483;BME280;18103;52.246;8.052;2023-04-01T11:51:39;98524.81;;;11.69;88.10
31483;BME280;18103;52.246;8.052;2023-04-01T12:28:12;98564.59;;;12.39;87.37
31483;BME280;18103;52.246;8.052;2023-04-01T12:39:14;98575.38;;;12.37;87.14
31483;BME280;18103;52.246;8.052;2023-04-01T12:55:36;98601.56;;;12.24;87.68
31483;BME280;18103;52.246;8.052;2023-04-01T13:25:27;98632.69;;;12.45;87.96
31483;BME280;18103;52.246;8.052;2023-04-01T13:28:09;98633.53;;;12.45;87.98
31483;BME280;18103;52.246;8.052;2023-04-01T13:30:53;98642.41;;;12.53;88.07
31483;BME280;18103;52.246;8.052;2023-04-01T13:33:45;98640.53;;;12.61;88.27
31483;BME280;18103;52.246;8.052;2023-04-01T13:53:16;98656.41;;;12.38;86.94
31483;BME280;18103;52.246;8.052;2023-04-01T13:56:15;98655.44;;;12.31;87.58
31483;BME280;18103;52.246;8.052;2023-04-01T14:09:44;98682.56;;;12.33;87.13
31483;BME280;18103;52.246;8.052;2023-04-01T14:12:44;98680.94;;;12.24;87.33
31483;BME280;18103;52.246;8.052;2023-04-01T14:18:37;98688.47;;;12.04;87.22
31483;BME280;18103;52.246;8.052;2023-04-01T14:21:35;98695.84;;;12.17;86.91
31483;BME280;18103;52.246;8.052;2023-04-01T14:24:21;98696.03;;;12.07;87.20
31483;BME280;18103;52.246;8.052;2023-04-01T14:37:34;98726.38;;;11.71;87.93
31483;BME280;18103;52.246;8.052;2023-04-01T14:50:45;98741.72;;;11.76;88.05
31483;BME280;18103;52.246;8.052;2023-04-01T14:58:16;98744.88;;;11.71;88.02
31483;BME280;18103;52.246;8.052;2023-04-01T15:03:28;98757.25;;;11.71;88.11
31483;BME280;18103;52.246;8.052;2023-04-01T15:12:14;98765.22;;;11.54;88.39
31483;BME280;18103;52.246;8.052;2023-04-01T15:14:46;98780.38;;;11.52;88.96
31483;BME280;18103;52.246;8.052;2023-04-01T15:28:24;98794.09;;;11.39;89.49
31483;BME280;18103;52.246;8.052;2023-04-01T15:31:10;98787.66;;;11.34;89.47
31483;BME280;18103;52.246;8.052;2023-04-01T15:36:59;98808.63;;;11.35;89.54
31483;BME280;18103;52.246;8.052;2023-04-01T15:39:53;98821.16;;;11.33;89.50
31483;BME280;18103;52.246;8.052;2023-04-01T15:48:06;98837.44;;;11.04;89.07
31483;BME280;18103;52.246;8.052;2023-04-01T15:50:55;98849.81;;;11.03;88.96
31483;BME280;18103;52.246;8.052;2023-04-01T15:55:57;98844.59;;;10.77;89.32
31483;BME280;18103;52.246;8.052;2023-04-01T16:17:08;98900.91;;;10.51;89.23
31483;BME280;18103;52.246;8.052;2023-04-01T16:31:10;98931.63;;;10.34;88.69
31483;BME280;18103;52.246;8.052;2023-04-01T16:36:27;98941.56;;;10.04;89.38
31483;BME280;18103;52.246;8.052;2023-04-01T16:41:52;98959.28;;;10.12;88.97
31483;BME280;18103;52.246;8.052;2023-04-01T16:44:26;98964.25;;;9.97;89.11
31483;BME280;18103;52.246;8.052;2023-04-01T16:46:54;98972.69;;;9.83;89.38
31483;BME280;18103;52.246;8.052;2023-04-01T16:49:32;98980.97;;;9.88;89.14
31483;BME280;18103;52.246;8.052;2023-04-01T16:55:02;98994.22;;;9.78;89.14
31483;BME280;18103;52.246;8.052;2023-04-01T16:57:42;98994.31;;;9.86;88.80
31483;BME280;18103;52.246;8.052;2023-04-01T17:05:17;99006.81;;;9.56;89.77
31483;BME280;18103;52.246;8.052;2023-04-01T17:08:07;99017.63;;;9.81;88.68
31483;BME280;18103;52.246;8.052;2023-04-01T17:10:52;99021.16;;;9.72;88.78
31483;BME280;18103;52.246;8.052;2023-04-01T17:19:04;99043.66;;;9.66;88.54
31483;BME280;18103;52.246;8.052;2023-04-01T17:25:10;99057.41;;;9.60;88.55
31483;BME280;18103;52.246;8.052;2023-04-01T17:27:44;99071.72;;;9.57;88.81
31483;BME280;18103;52.246;8.052;2023-04-01T17:30:32;99080.50;;;9.38;89.58
31483;BME280;18103;52.246;8.052;2023-04-01T17:33:19;99087.44;;;9.39;88.79
31483;BME280;18103;52.246;8.052;2023-04-01T17:44:34;99116.72;;;9.27;88.46
31483;BME280;18103;52.246;8.052;2023-04-01T17:49:45;99131.47;;;9.10;89.07
31483;BME280;18103;52.246;8.052;2023-04-01T17:52:31;99136.31;;;8.95;89.41
31483;BME280;18103;52.246;8.052;2023-04-01T17:55:51;99136.72;;;9.00;88.79
31483;BME280;18103;52.246;8.052;2023-04-01T17:58:44;99144.88;;;8.97;88.71
31483;BME280;18103;52.246;8.052;2023-04-01T18:04:07;99164.03;;;8.99;88.66
31483;BME280;18103;52.246;8.052;2023-04-01T18:23:30;99227.47;;;8.35;88.80
31483;BME280;18103;52.246;8.052;2023-04-01T18:26:20;99231.03;;;8.25;89.20
31483;BME280;18103;52.246;8.052;2023-04-01T18:31:20;99234.78;;;8.32;88.96
31483;BME280;18103;52.246;8.052;2023-04-01T18:33:49;99240.84;;;8.22;89.08
31483;BME280;18103;52.246;8.052;2023-04-01T18:39:07;99253.72;;;8.26;88.79
31483;BME280;18103;52.246;8.052;2023-04-01T18:42:10;99255.28;;;8.07;89.48
31483;BME280;18103;52.246;8.052;2023-04-01T18:44:50;99269.66;;;8.03;88.96
31483;BME280;18103;52.246;8.052;2023-04-01T18:50:00;99288.41;;;8.19;88.99
31483;BME280;18103;52.246;8.052;2023-04-01T18:52:41;99289.91;;;8.12;89.05
31483;BME280;18103;52.246;8.052;2023-04-01T19:00:25;99307.44;;;8.02;89.36
31483;BME280;18103;52.246;8.052;2023-04-01T19:05:38;99328.31;;;8.03;88.93
31483;BME280;18103;52.246;8.052;2023-04-01T19:08:31;99328.59;;;7.79;89.64
31483;BME280;18103;52.246;8.052;2023-04-01T19:17:20;99359.88;;;7.82;89.03
31483;BME280;18103;52.246;8.052;2023-04-01T19:22:50;99378.09;;;7.63;89.50
31483;BME280;18103;52.246;8.052;2023-04-01T19:25:27;99382.50;;;7.62;89.30
31483;BME280;18103;52.246;8.052;2023-04-01T19:30:58;99393.81;;;7.74;88.79
31483;BME280;18103;52.246;8.052;2023-04-01T19:33:37;99403.09;;;7.78;88.25
31483;BME280;18103;52.246;8.052;2023-04-01T19:36:11;99390.22;;;7.75;88.51
31483;BME280;18103;52.246;8.052;2023-04-01T19:46:20;99424.22;;;7.56;88.15
31483;BME280;18103;52.246;8.052;2023-04-01T19:51:26;99436.19;;;7.26;88.36
31483;BME280;18103;52.246;8.052;2023-04-01T19:59:34;99448.97;;;7.30;87.89
31483;BME280;18103;52.246;8.052;2023-04-01T20:04:53;99465.16;;;7.35;87.65
31483;BME280;18103;52.246;8.052;2023-04-01T20:07:29;99473.78;;;7.38;87.87
31483;BME280;18103;52.246;8.052;2023-04-01T20:10:25;99475.94;;;7.21;88.79
31483;BME280;18103;52.246;8.052;2023-04-01T20:15:39;99490.38;;;7.27;88.74
31483;BME280;18103;52.246;8.052;2023-04-01T20:18:15;99494.19;;;7.11;88.84
31483;BME280;18103;52.246;8.052;2023-04-01T20:20:57;99490.94;;;7.19;88.39
31483;BME280;18103;52.246;8.052;2023-04-01T20:26:13;99512.78;;;7.42;87.45
31483;BME280;18103;52.246;8.052;2023-04-01T20:31:33;99524.59;;;7.25;88.00
31483;BME280;18103;52.246;8.052;2023-04-01T20:34:19;99530.69;;;7.03;88.49
31483;BME280;18103;52.246;8.052;2023-04-01T20:50:53;99554.97;;;6.82;88.30
31483;BME280;18103;52.246;8.052;2023-04-01T21:00:00;99570.72;;;6.94;87.94
31483;BME280;18103;52.246;8.052;2023-04-01T21:07:49;99592.44;;;6.60;88.13
31483;BME280;18103;52.246;8.052;2023-04-01T21:13:00;99596.66;;;6.74;87.77
31483;BME280;18103;52.246;8.052;2023-04-01T21:18:43;99626.66;;;6.59;88.46
31483;BME280;18103;52.246;8.052;2023-04-01T21:35:26;99655.91;;;6.41;87.99
31483;BME280;18103;52.246;8.052;2023-04-01T21:38:16;99666.97;;;6.45;87.95
31483;BME280;18103;52.246;8.052;2023-04-01T21:41:03;99675.69;;;6.45;87.86
31483;BME280;18103;52.246;8.052;2023-04-01T21:54:35;99710.84;;;6.43;87.67
31483;BME280;18103;52.246;8.052;2023-04-01T21:57:40;99711.66;;;6.43;87.73
31483;BME280;18103;52.246;8.052;2023-04-01T22:05:56;99728.00;;;6.23;88.61
31483;BME280;18103;52.246;8.052;2023-04-01T22:14:09;99744.34;;;6.13;88.12
31483;BME280;18103;52.246;8.052;2023-04-01T22:19:19;99754.31;;;6.21;88.37
31483;BME280;18103;52.246;8.052;2023-04-01T22:22:07;99764.78;;;6.08;88.27
31483;BME280;18103;52.246;8.052;2023-04-01T22:24:48;99760.09;;;6.01;88.56
31483;BME280;18103;52.246;8.052;2023-04-01T22:32:48;99782.50;;;6.05;87.87
31483;BME280;18103;52.246;8.052;2023-04-01T22:35:42;99784.03;;;5.94;88.23
31483;BME280;18103;52.246;8.052;2023-04-01T22:49:59;99815.81;;;6.03;87.60
31483;BME280;18103;52.246;8.052;2023-04-01T22:52:39;99818.81;;;5.83;88.05
31483;BME280;18103;52.246;8.052;2023-04-01T22:55:13;99815.13;;;5.86;87.76
31483;BME280;18103;52.246;8.052;2023-04-01T22:58:05;99820.09;;;5.91;87.89
31483;BME280;18103;52.246;8.052;2023-04-01T23:00:40;99826.47;;;5.87;87.62
31483;BME280;18103;52.246;8.052;2023-04-01T23:03:32;99837.34;;;5.80;88.23
31483;BME280;18103;52.246;8.052;2023-04-01T23:06:03;99844.38;;;5.80;88.03
31483;BME280;18103;52.246;8.052;2023-04-01T23:11:30;99855.91;;;5.90;87.46
31483;BME280;18103;52.246;8.052;2023-04-01T23:19:54;99865.50;;;5.64;87.87
31483;BME280;18103;52.246;8.052;2023-04-01T23:22:37;99876.81;;;5.64;87.89
31483;BME280;18103;52.246;8.052;2023-04-01T23:25:16;99877.13;;;5.60;88.07
31483;BME280;18103;52.246;8.052;2023-04-01T23:38:17;99902.66;;;5.56;87.24
31483;BME280;18103;52.246;8.052;2023-04-01T23:40:43;99913.22;;;5.55;87.48
31483;BME280;18103;52.246;8.052;2023-04-01T23:43:26;99904.44;;;5.56;87.21
31483;BME280;18103;52.246;8.052;2023-04-01T23:45:54;99906.66;;;5.35;87.72
31483;BME280;18103;52.246;8.052;2023-04-01T23:48:59;99913.91;;;5.44;86.89
31483;BME280;18103;52.246;8.052;2023-04-01T23:51:37;99932.44;;;5.41;87.12
31483;BME280;18103;52.246;8.052;2023-04-01T23:54:19;99938.94;;;5.48;86.86
31483;BME280;18103;52.246;8.052;2023-04-01T23:56:51;99929.50;;;5.45;86.58
31483;BME280;18103;52.246;8.052;2023-04-01T23:59:32;99942.84;;;5.55;86.50
